Time;durP1;ratioP1;P1;durP2;ratioP2;P2;SDS_P1;SDS_P2;PMS_P1;PMS_P2;Temp;Humidity;BMP_temperature;BMP_pressure;BME280_temperature;BME280_humidity;BME280_pressure;Samples;Min_cycle;Max_cycle;Signal;HPM_P1;HPM_P2
2021/03/27 11:26:58;;;;;;;40.58;39.08;;;;;;;;;;5090847;27;20512;-73
2021/03/27 11:29:43;;;;;;;45.40;43.45;;;;;;;;;;5089639;28;20241;-72
2021/03/27 11:32:09;;;;;;;44.17;42.38;;;;;;;;;;5090830;28;20168;-72
2021/03/27 11:34:45;;;;;;;47.65;45.25;;;;;;;;;;5090736;28;20178;-73
2021/03/27 11:37:17;;;;;;;46.58;44.75;;;;;;;;;;5090736;28;20687;-72
2021/03/27 11:39:50;;;;;;;47.47;45.45;;;;;;;;;;5089407;28;20219;-72
2021/03/27 11:42:28;;;;;;;45.92;44.03;;;;;;;;;;5090614;28;20213;-72
2021/03/27 11:44:57;;;;;;;41.25;39.65;;;;;;;;;;5090674;28;20556;-72
2021/03/27 11:47:46;;;;;;;37.80;36.35;;;;;;;;;;5090567;28;20168;-72
2021/03/27 11:50:31;;;;;;;36.22;34.92;;;;;;;;;;5090546;28;20191;-73
2021/03/27 11:53:05;;;;;;;43.47;41.78;;;;;;;;;;5090489;28;20646;-72
2021/03/27 11:55:34;;;;;;;39.72;37.83;;;;;;;;;;5090438;28;20179;-72
2021/03/27 11:58:18;;;;;;;38.58;36.97;;;;;;;;;;5090296;28;20618;-72
2021/03/27 12:01:03;;;;;;;38.55;37.13;;;;;;;;;;5088950;28;20174;-72
2021/03/27 12:03:38;;;;;;;37.80;36.40;;;;;;;;;;5090216;28;20163;-72
2021/03/27 12:06:10;;;;;;;42.08;40.47;;;;;;;;;;5090100;28;20199;-72
2021/03/27 12:08:44;;;;;;;39.70;38.10;;;;;;;;;;5090167;28;20243;-72
2021/03/27 12:11:22;;;;;;;38.90;37.40;;;;;;;;;;5090089;28;20175;-72
2021/03/27 12:14:03;;;;;;;37.70;36.15;;;;;;;;;;5090223;28;20167;-72
2021/03/27 12:16:37;;;;;;;37.58;35.88;;;;;;;;;;5089918;28;20191;-73
2021/03/27 12:19:27;;;;;;;43.72;41.92;;;;;;;;;;5089935;28;20167;-72
2021/03/27 12:21:56;;;;;;;39.90;38.13;;;;;;;;;;5088632;28;20291;-72
2021/03/27 12:24:27;;;;;;;40.08;38.15;;;;;;;;;;5089895;28;20164;-72
2021/03/27 12:27:12;;;;;;;39.63;37.78;;;;;;;;;;5088588;28;20215;-72
2021/03/27 12:29:42;;;;;;;39.45;37.95;;;;;;;;;;5089814;28;20637;-72
2021/03/27 12:32:23;;;;;;;37.60;36.20;;;;;;;;;;5089686;28;20172;-72
2021/03/27 12:34:49;;;;;;;37.78;36.38;;;;;;;;;;5089695;28;20569;-72
2021/03/27 12:37:15;;;;;;;36.80;35.30;;;;;;;;;;5080356;28;20641;-72
2021/03/27 12:39:41;;;;;;;36.65;35.25;;;;;;;;;;5076090;28;20218;-72
2021/03/27 12:42:25;;;;;;;36.13;34.83;;;;;;;;;;5074764;28;20251;-72
2021/03/27 12:44:56;;;;;;;35.22;33.92;;;;;;;;;;5075943;28;20202;-72
2021/03/27 12:47:41;;;;;;;36.17;34.88;;;;;;;;;;5076193;28;20561;-73
2021/03/27 12:50:10;;;;;;;35.88;34.28;;;;;;;;;;5075928;28;20634;-73
2021/03/27 12:52:51;;;;;;;37.42;35.95;;;;;;;;;;5075819;28;20256;-72
2021/03/27 12:55:17;;;;;;;36.90;35.50;;;;;;;;;;5075786;28;20172;-72
2021/03/27 12:57:49;;;;;;;37.78;36.35;;;;;;;;;;5075801;28;20183;-72
2021/03/27 13:00:30;;;;;;;35.08;33.65;;;;;;;;;;5075687;28;20654;-72
2021/03/27 13:03:11;;;;;;;33.97;32.67;;;;;;;;;;5075661;28;20657;-72
2021/03/27 13:05:48;;;;;;;34.15;32.92;;;;;;;;;;5074273;28;20199;-72
2021/03/27 13:08:40;;;;;;;32.72;31.63;;;;;;;;;;5075567;28;20172;-72
2021/03/27 13:11:24;;;;;;;31.50;30.38;;;;;;;;;;5073057;28;20219;-72
2021/03/27 13:13:53;;;;;;;34.97;33.38;;;;;;;;;;5075445;28;20164;-72
2021/03/27 13:16:19;;;;;;;32.65;31.45;;;;;;;;;;5075442;28;20168;-72
2021/03/27 13:18:50;;;;;;;35.25;33.75;;;;;;;;;;5073987;28;20195;-72
2021/03/27 13:21:30;;;;;;;35.30;34.00;;;;;;;;;;5075421;28;20625;-72
2021/03/27 13:23:59;;;;;;;34.05;32.75;;;;;;;;;;5075305;28;20168;-72
2021/03/27 13:26:32;;;;;;;34.97;33.72;;;;;;;;;;5074995;28;20216;-72
2021/03/27 13:29:07;;;;;;;33.85;32.65;;;;;;;;;;5075197;28;20168;-72
2021/03/27 13:31:41;;;;;;;34.90;33.60;;;;;;;;;;5075149;28;20571;-72
2021/03/27 13:34:10;;;;;;;36.30;34.90;;;;;;;;;;5075037;28;20213;-72
2021/03/27 13:36:42;;;;;;;33.53;32.33;;;;;;;;;;5074968;28;20272;-72
2021/03/27 13:39:11;;;;;;;33.15;31.85;;;;;;;;;;5074943;28;20168;-72
2021/03/27 13:41:37;;;;;;;32.30;31.13;;;;;;;;;;5074939;28;20502;-72
2021/03/27 13:44:09;;;;;;;32.03;30.92;;;;;;;;;;5074810;28;20699;-72
2021/03/27 13:46:39;;;;;;;70.97;66.85;;;;;;;;;;5073406;28;20253;-74
2021/03/27 13:49:10;;;;;;;38.38;36.85;;;;;;;;;;5073744;28;20173;-76
2021/03/27 13:51:47;;;;;;;48.05;46.10;;;;;;;;;;5073340;28;20217;-73
2021/03/27 13:54:13;;;;;;;33.83;32.63;;;;;;;;;;5073386;28;20183;-73
2021/03/27 13:56:46;;;;;;;34.78;33.53;;;;;;;;;;5074660;28;20689;-74
2021/03/27 13:59:27;;;;;;;34.50;33.22;;;;;;;;;;5073344;28;20184;-75
2021/03/27 14:02:12;;;;;;;67.50;64.50;;;;;;;;;;5074485;28;20626;-72
2021/03/27 14:04:40;;;;;;;33.67;32.47;;;;;;;;;;5074313;28;20508;-72
2021/03/27 14:07:12;;;;;;;35.88;34.58;;;;;;;;;;5073120;28;20592;-73
2021/03/27 14:09:49;;;;;;;35.47;34.17;;;;;;;;;;5074366;28;20164;-74
2021/03/27 14:12:21;;;;;;;35.22;33.92;;;;;;;;;;5074273;28;20352;-73
2021/03/27 14:15:02;;;;;;;33.40;32.05;;;;;;;;;;5074302;28;20164;-75
2021/03/27 14:17:46;;;;;;;35.80;34.40;;;;;;;;;;5074154;28;20503;-79
2021/03/27 14:20:31;;;;;;;40.30;38.70;;;;;;;;;;5073064;28;20256;-72
2021/03/27 14:23:16;;;;;;;38.75;37.25;;;;;;;;;;5073710;28;20617;-72
2021/03/27 14:26:00;;;;;;;37.55;36.05;;;;;;;;;;5073811;28;20223;-74
2021/03/27 14:28:45;;;;;;;35.70;34.30;;;;;;;;;;5073945;28;20617;-72
2021/03/27 14:31:18;;;;;;;52.17;49.88;;;;;;;;;;5073972;28;20625;-73
2021/03/27 14:33:50;;;;;;;36.80;35.17;;;;;;;;;;5073959;28;20168;-75
2021/03/27 14:36:26;;;;;;;39.35;37.83;;;;;;;;;;5073948;28;20168;-74
2021/03/27 14:39:10;;;;;;;40.42;38.85;;;;;;;;;;5073834;28;20172;-74
2021/03/27 14:41:51;;;;;;;40.95;39.15;;;;;;;;;;5073776;28;20634;-74
2021/03/27 14:44:23;;;;;;;36.25;34.75;;;;;;;;;;5073657;28;20164;-73
2021/03/27 14:46:55;;;;;;;37.08;35.67;;;;;;;;;;5072341;28;20200;-72
2021/03/27 14:49:39;;;;;;;39.22;37.78;;;;;;;;;;5072394;28;20553;-73
2021/03/27 14:52:08;;;;;;;47.55;44.60;;;;;;;;;;5072295;28;20625;-73
2021/03/27 14:54:50;;;;;;;51.28;49.08;;;;;;;;;;5073387;28;20520;-76
2021/03/27 14:57:19;;;;;;;34.67;33.47;;;;;;;;;;5073523;28;20644;-75
2021/03/27 14:59:46;;;;;;;36.30;34.95;;;;;;;;;;5073306;28;20251;-73
2021/03/27 15:02:17;;;;;;;33.67;32.47;;;;;;;;;;5072140;28;20172;-73
2021/03/27 15:04:49;;;;;;;33.63;32.42;;;;;;;;;;5073406;28;20160;-72
2021/03/27 15:07:34;;;;;;;31.73;30.63;;;;;;;;;;5073459;28;20171;-73
2021/03/27 15:10:18;;;;;;;30.88;29.77;;;;;;;;;;5073418;28;20168;-72
2021/03/27 15:12:47;;;;;;;29.30;28.20;;;;;;;;;;5073438;28;20215;-72
2021/03/27 15:15:16;;;;;;;32.40;31.20;;;;;;;;;;5072052;28;20176;-72
2021/03/27 15:17:52;;;;;;;31.20;30.10;;;;;;;;;;5073227;28;20674;-73
2021/03/27 15:20:37;;;;;;;34.13;32.88;;;;;;;;;;5073258;28;20178;-72
2021/03/27 15:23:17;;;;;;;32.97;31.67;;;;;;;;;;5071984;28;20172;-73
2021/03/27 15:28:54;;;;;;;31.38;30.02;;;;;;;;;;5073255;28;20175;-73
2021/03/27 15:31:27;;;;;;;34.17;32.88;;;;;;;;;;5073173;28;20215;-73
2021/03/27 15:34:00;;;;;;;32.53;31.38;;;;;;;;;;5073229;28;20578;-73
2021/03/27 15:36:46;;;;;;;33.13;31.92;;;;;;;;;;5071867;28;20176;-72
2021/03/27 15:39:33;;;;;;;32.60;31.50;;;;;;;;;;5073160;28;20176;-73
2021/03/27 15:42:26;;;;;;;30.48;29.48;;;;;;;;;;5073074;28;20179;-73
2021/03/27 15:44:58;;;;;;;30.77;29.67;;;;;;;;;;5072738;28;20188;-73
2021/03/27 15:47:27;;;;;;;31.58;30.48;;;;;;;;;;5073045;28;20250;-73
2021/03/27 15:50:15;;;;;;;33.80;32.58;;;;;;;;;;5071736;28;20172;-73
2021/03/27 15:52:54;;;;;;;32.50;31.23;;;;;;;;;;5071348;28;20572;-73
2021/03/27 15:55:32;;;;;;;32.35;31.20;;;;;;;;;;5072970;28;20168;-73
2021/03/27 15:58:00;;;;;;;30.85;29.65;;;;;;;;;;5072907;28;20164;-73
2021/03/27 16:00:35;;;;;;;32.65;31.48;;;;;;;;;;5071641;28;20182;-73
2021/03/27 16:03:08;;;;;;;32.05;30.95;;;;;;;;;;5072848;28;20177;-73
2021/03/27 16:05:36;;;;;;;32.63;31.45;;;;;;;;;;5071507;28;20302;-73
2021/03/27 16:08:03;;;;;;;32.70;31.58;;;;;;;;;;5071544;28;20176;-73
2021/03/27 16:10:29;;;;;;;33.70;32.30;;;;;;;;;;5072831;28;20192;-73
2021/03/27 16:12:58;;;;;;;34.67;33.28;;;;;;;;;;5073973;28;20529;-73
2021/03/27 16:15:40;;;;;;;35.78;34.38;;;;;;;;;;5076747;28;20169;-73
2021/03/27 16:18:24;;;;;;;33.88;32.63;;;;;;;;;;5075185;28;20196;-73
2021/03/27 16:20:53;;;;;;;34.22;32.97;;;;;;;;;;5076453;28;20196;-73
2021/03/27 16:23:19;;;;;;;35.38;34.08;;;;;;;;;;5075039;28;20180;-73
2021/03/27 16:25:45;;;;;;;35.75;34.25;;;;;;;;;;5076172;28;20580;-73
2021/03/27 16:28:16;;;;;;;34.58;33.28;;;;;;;;;;5076381;28;20223;-73
2021/03/27 16:30:51;;;;;;;35.53;33.70;;;;;;;;;;5076286;28;20168;-73
2021/03/27 16:33:23;;;;;;;34.20;32.90;;;;;;;;;;5074918;28;20206;-73
2021/03/27 16:35:49;;;;;;;32.90;31.65;;;;;;;;;;5074813;28;20180;-73
2021/03/27 16:38:18;;;;;;;34.97;33.47;;;;;;;;;;5074710;28;20203;-73
2021/03/27 16:41:03;;;;;;;33.92;32.72;;;;;;;;;;5074830;28;20168;-73
2021/03/27 16:43:31;;;;;;;33.67;32.47;;;;;;;;;;5076005;28;20172;-73
2021/03/27 16:46:09;;;;;;;34.55;33.25;;;;;;;;;;5075912;28;20192;-73
2021/03/27 16:48:56;;;;;;;34.38;33.15;;;;;;;;;;5075984;28;20183;-73
2021/03/27 16:51:40;;;;;;;36.08;34.75;;;;;;;;;;5075970;28;20164;-73
2021/03/27 16:54:09;;;;;;;36.60;34.60;;;;;;;;;;5075876;28;20544;-73
2021/03/27 16:56:53;;;;;;;34.85;33.55;;;;;;;;;;5074483;28;20267;-73
2021/03/27 16:59:25;;;;;;;35.28;33.97;;;;;;;;;;5075740;28;20168;-73
2021/03/27 17:02:09;;;;;;;36.80;35.40;;;;;;;;;;5074448;28;20661;-73
